createdAt,value
2018-03-04T00:00:24.920Z,2.14
2018-03-04T00:01:14.001Z,2.20
2018-03-04T00:02:03.042Z,2.22
2018-03-04T00:02:52.144Z,2.24
2018-03-04T00:03:41.210Z,2.24
2018-03-04T00:04:30.367Z,2.22
2018-03-04T00:05:19.420Z,2.30
2018-03-04T00:06:08.466Z,2.30
2018-03-04T00:06:57.536Z,2.33
2018-03-04T00:07:46.577Z,2.41
2018-03-04T00:08:35.604Z,2.44
2018-03-04T00:09:25.013Z,2.43
2018-03-04T00:10:14.076Z,2.44
2018-03-04T00:11:03.116Z,2.46
2018-03-04T00:11:52.150Z,2.46
2018-03-04T00:12:41.185Z,2.52
2018-03-04T00:13:30.238Z,2.63
2018-03-04T00:14:19.267Z,2.72
2018-03-04T00:15:08.382Z,2.72
2018-03-04T00:15:57.422Z,2.83
2018-03-04T00:16:46.490Z,2.88
2018-03-04T00:17:35.517Z,2.91
2018-03-04T00:18:24.553Z,2.90
2018-03-04T00:19:13.595Z,2.83
2018-03-04T00:20:02.653Z,2.80
2018-03-04T00:20:51.715Z,2.71
2018-03-04T00:21:40.758Z,2.61
2018-03-04T00:22:41.582Z,2.61
2018-03-04T00:23:30.637Z,2.59
2018-03-04T00:24:19.687Z,2.61
2018-03-04T00:25:08.830Z,2.62
2018-03-04T00:25:57.865Z,2.62
2018-03-04T00:26:46.907Z,2.59
2018-03-04T00:27:35.971Z,2.57
2018-03-04T00:28:25.134Z,2.58
2018-03-04T00:29:14.171Z,2.65
2018-03-04T00:30:03.257Z,2.62
2018-03-04T00:30:52.302Z,2.65
2018-03-04T00:31:41.376Z,2.48
2018-03-04T00:32:30.414Z,2.43
2018-03-04T00:33:19.450Z,2.40
2018-03-04T00:34:08.539Z,2.47
2018-03-04T00:34:57.587Z,2.48
2018-03-04T00:35:46.731Z,2.62
2018-03-04T00:36:35.860Z,2.61
2018-03-04T00:37:25.016Z,2.58
2018-03-04T00:38:14.061Z,2.40
2018-03-04T00:39:03.241Z,2.29
2018-03-04T00:39:52.284Z,2.12
2018-03-04T00:40:41.333Z,2.19
2018-03-04T00:41:30.393Z,2.18
2018-03-04T00:42:19.436Z,2.21
2018-03-04T00:43:08.484Z,2.27
2018-03-04T00:43:57.542Z,2.27
2018-03-04T00:44:46.718Z,2.36
2018-03-04T00:45:35.756Z,2.39
2018-03-04T00:46:24.791Z,2.33
2018-03-04T00:47:13.884Z,2.36
2018-03-04T00:48:02.918Z,2.38
2018-03-04T00:48:51.954Z,2.38
2018-03-04T00:49:40.990Z,2.44
2018-03-04T00:50:30.025Z,2.46
2018-03-04T00:51:19.264Z,2.49
2018-03-04T00:52:08.389Z,2.50
2018-03-04T00:52:57.482Z,2.45
2018-03-04T00:53:46.531Z,2.49
2018-03-04T00:54:35.567Z,2.52
2018-03-04T00:55:24.630Z,2.52
2018-03-04T00:56:13.677Z,2.56
2018-03-04T00:57:02.741Z,2.59
2018-03-04T00:57:51.871Z,2.55
2018-03-04T00:58:40.908Z,2.45
2018-03-04T00:59:29.941Z,2.45
2018-03-04T01:00:18.997Z,2.49
2018-03-04T01:01:08.084Z,2.47
2018-03-04T01:01:57.151Z,2.50
2018-03-04T01:02:46.175Z,2.43
2018-03-04T01:03:35.238Z,2.44
2018-03-04T01:04:24.287Z,2.46
2018-03-04T01:05:13.334Z,2.52
2018-03-04T01:06:02.366Z,2.56
2018-03-04T01:06:51.398Z,2.52
2018-03-04T01:07:40.431Z,2.51
2018-03-04T01:08:29.471Z,2.49
2018-03-04T01:09:18.546Z,2.51
2018-03-04T01:10:07.594Z,2.51
2018-03-04T01:10:56.633Z,2.57
2018-03-04T01:11:45.663Z,2.57
2018-03-04T01:12:34.743Z,2.56
2018-03-04T01:13:23.793Z,2.64
2018-03-04T01:14:12.847Z,2.63
2018-03-04T01:15:01.976Z,2.71
2018-03-04T01:15:51.026Z,2.77
2018-03-04T01:16:40.062Z,2.82
2018-03-04T01:17:29.104Z,2.81
2018-03-04T01:18:18.135Z,2.80
2018-03-04T01:19:07.188Z,2.81
2018-03-04T01:19:56.234Z,2.79
2018-03-04T01:20:45.308Z,2.71
2018-03-04T01:21:34.338Z,2.73
2018-03-04T01:22:23.388Z,2.81
2018-03-04T01:23:12.435Z,2.82
2018-03-04T01:24:01.459Z,2.73
2018-03-04T01:24:50.508Z,2.73
2018-03-04T01:25:39.544Z,2.81
2018-03-04T01:26:31.645Z,2.77
2018-03-04T01:27:20.709Z,2.71
2018-03-04T01:28:09.760Z,2.75
2018-03-04T01:28:58.793Z,2.86
2018-03-04T01:29:47.843Z,2.89
2018-03-04T01:30:36.876Z,2.91
2018-03-04T01:31:25.916Z,2.82
2018-03-04T01:32:15.122Z,2.59
2018-03-04T01:33:04.179Z,2.61
2018-03-04T01:33:53.236Z,2.61
2018-03-04T01:34:42.286Z,2.62
2018-03-04T01:35:31.336Z,2.62
2018-03-04T01:36:20.378Z,2.62
2018-03-04T01:37:09.414Z,2.59
2018-03-04T01:37:58.498Z,2.56
2018-03-04T01:38:47.554Z,2.47
2018-03-04T01:39:36.582Z,2.43
2018-03-04T01:40:25.621Z,2.56
2018-03-04T01:41:14.746Z,2.60
2018-03-04T01:42:03.799Z,2.64
2018-03-04T01:42:52.867Z,2.65
2018-03-04T01:43:41.933Z,2.51
2018-03-04T01:44:30.967Z,2.41
2018-03-04T01:45:19.995Z,2.28
2018-03-04T01:46:09.162Z,2.22
2018-03-04T01:46:58.209Z,2.39
2018-03-04T01:47:47.246Z,2.40
2018-03-04T01:48:36.305Z,2.34
2018-03-04T01:49:25.341Z,2.37
2018-03-04T01:50:14.385Z,2.37
2018-03-04T01:51:03.413Z,2.40
2018-03-04T01:51:52.549Z,2.30
2018-03-04T01:52:41.598Z,2.30
2018-03-04T01:53:30.638Z,2.33
2018-03-04T01:54:19.683Z,2.31
2018-03-04T01:55:08.718Z,2.32
2018-03-04T01:55:57.774Z,2.23
2018-03-04T01:56:46.902Z,2.33
2018-03-04T01:57:35.955Z,2.39
2018-03-04T01:58:24.994Z,2.43
2018-03-04T01:59:14.037Z,2.51
2018-03-04T02:00:03.099Z,2.55
2018-03-04T02:00:52.815Z,2.41
2018-03-04T02:01:42.025Z,2.26
2018-03-04T02:02:31.227Z,2.30
2018-03-04T02:03:20.295Z,2.36
2018-03-04T02:04:09.329Z,2.44
2018-03-04T02:04:58.377Z,2.48
2018-03-04T02:05:47.420Z,2.58
2018-03-04T02:06:36.460Z,2.56
2018-03-04T02:07:25.526Z,2.53
2018-03-04T02:08:14.676Z,2.54
2018-03-04T02:09:03.797Z,2.61
2018-03-04T02:09:52.837Z,2.61
2018-03-04T02:10:41.898Z,2.59
2018-03-04T02:11:30.970Z,2.61
2018-03-04T02:12:20.073Z,2.67
2018-03-04T02:13:09.119Z,2.69
2018-03-04T02:13:58.150Z,2.71
2018-03-04T02:14:47.189Z,2.79
2018-03-04T02:15:36.264Z,2.72
2018-03-04T02:16:25.317Z,2.75
2018-03-04T02:17:14.443Z,2.78
2018-03-04T02:18:03.473Z,2.84
2018-03-04T02:18:52.523Z,2.76
2018-03-04T02:19:41.561Z,2.78
2018-03-04T02:20:30.603Z,2.74
2018-03-04T02:21:19.754Z,2.69
2018-03-04T02:22:08.836Z,2.57
2018-03-04T02:22:57.871Z,2.57
2018-03-04T02:23:46.901Z,2.58
2018-03-04T02:24:35.938Z,2.56
2018-03-04T02:25:25.003Z,2.68
2018-03-04T02:26:14.048Z,2.66
2018-03-04T02:27:03.184Z,2.66
2018-03-04T02:27:52.228Z,2.79
2018-03-04T02:28:41.301Z,2.85
2018-03-04T02:29:30.422Z,2.87
2018-03-04T02:30:19.462Z,2.87
2018-03-04T02:31:08.515Z,2.87
2018-03-04T02:31:57.572Z,2.87
2018-03-04T02:32:46.608Z,2.86
2018-03-04T02:33:35.680Z,2.87
2018-03-04T02:34:24.733Z,2.89
2018-03-04T02:35:13.881Z,2.89
2018-03-04T02:36:02.939Z,2.87
2018-03-04T02:36:51.982Z,2.90
2018-03-04T02:37:41.033Z,2.89
2018-03-04T02:38:30.088Z,2.82
2018-03-04T02:39:19.152Z,2.78
2018-03-04T02:40:08.214Z,2.79
2018-03-04T02:40:57.318Z,2.75
2018-03-04T02:41:46.363Z,2.72
2018-03-04T02:42:35.418Z,2.77
2018-03-04T02:43:24.455Z,2.74
2018-03-04T02:44:13.508Z,2.74
2018-03-04T02:45:02.549Z,2.78
2018-03-04T02:45:51.764Z,2.73
2018-03-04T02:46:40.826Z,2.76
2018-03-04T02:47:29.874Z,2.77
2018-03-04T02:48:19.017Z,2.75
2018-03-04T02:49:08.054Z,2.74
2018-03-04T02:49:57.096Z,2.73
2018-03-04T02:50:46.156Z,2.72
2018-03-04T02:51:35.194Z,2.60
2018-03-04T02:52:25.940Z,2.57
2018-03-04T02:53:15.014Z,2.57
2018-03-04T02:54:04.099Z,2.59
2018-03-04T02:54:53.141Z,2.60
2018-03-04T02:55:42.179Z,2.63
2018-03-04T02:56:31.217Z,2.72
2018-03-04T02:57:20.254Z,2.70
2018-03-04T02:58:09.303Z,2.62
2018-03-04T02:58:58.341Z,2.65
2018-03-04T02:59:47.423Z,2.71
2018-03-04T03:00:36.470Z,2.72
2018-03-04T03:01:25.530Z,2.70
2018-03-04T03:02:14.573Z,2.66
2018-03-04T03:03:03.617Z,2.66
2018-03-04T03:03:52.674Z,2.64
2018-03-04T03:04:41.715Z,2.67
2018-03-04T03:05:30.849Z,2.65
2018-03-04T03:06:19.896Z,2.63
2018-03-04T03:07:08.931Z,2.64
2018-03-04T03:07:57.968Z,2.62
2018-03-04T03:08:47.019Z,2.69
2018-03-04T03:09:36.062Z,2.67
2018-03-04T03:10:25.111Z,2.59
2018-03-04T03:11:14.283Z,2.65
2018-03-04T03:12:03.319Z,2.64
2018-03-04T03:12:52.367Z,2.64
2018-03-04T03:13:41.484Z,2.61
2018-03-04T03:14:30.525Z,2.61
2018-03-04T03:15:19.570Z,2.64
2018-03-04T03:16:08.621Z,2.66
2018-03-04T03:16:57.693Z,2.64
2018-03-04T03:17:46.785Z,2.60
2018-03-04T03:18:35.827Z,2.60
2018-03-04T03:19:24.885Z,2.59
2018-03-04T03:20:13.918Z,2.58
2018-03-04T03:21:02.960Z,2.48
2018-03-04T03:21:52.033Z,2.52
2018-03-04T03:22:41.148Z,2.52
2018-03-04T03:23:30.197Z,2.50
2018-03-04T03:24:19.246Z,2.57
2018-03-04T03:25:08.288Z,2.57
2018-03-04T03:25:57.315Z,2.65
2018-03-04T03:26:46.339Z,2.66
2018-03-04T03:27:35.384Z,2.71
2018-03-04T03:28:24.577Z,2.75
2018-03-04T03:29:13.616Z,2.81
2018-03-04T03:30:02.715Z,2.81
2018-03-04T03:30:51.779Z,2.67
2018-03-04T03:31:40.839Z,2.63
2018-03-04T03:32:29.887Z,2.63
2018-03-04T03:33:19.041Z,2.64
2018-03-04T03:34:08.154Z,2.62
2018-03-04T03:34:57.196Z,2.59
2018-03-04T03:35:46.250Z,2.60
2018-03-04T03:36:35.291Z,2.54
2018-03-04T03:37:24.320Z,2.38
2018-03-04T03:38:13.357Z,2.35
2018-03-04T03:39:02.453Z,2.28
2018-03-04T03:39:51.522Z,2.32
2018-03-04T03:40:40.569Z,2.36
2018-03-04T03:41:29.626Z,2.33
2018-03-04T03:42:18.777Z,2.34
2018-03-04T03:43:07.822Z,2.26
2018-03-04T03:43:56.867Z,2.30
2018-03-04T03:44:45.915Z,2.39
2018-03-04T03:45:34.961Z,2.38
2018-03-04T03:46:24.009Z,2.36
2018-03-04T03:47:13.059Z,2.38
2018-03-04T03:48:02.158Z,2.38
2018-03-04T03:48:51.205Z,2.60
2018-03-04T03:49:40.249Z,2.72
2018-03-04T03:50:29.316Z,2.68
2018-03-04T03:51:18.362Z,2.69
2018-03-04T03:52:07.725Z,2.64
2018-03-04T03:52:56.761Z,2.61
2018-03-04T03:53:45.841Z,2.63
2018-03-04T03:54:34.882Z,2.70
2018-03-04T03:55:23.917Z,2.61
2018-03-04T03:56:13.482Z,2.54
2018-03-04T03:57:02.537Z,2.54
2018-03-04T03:57:51.577Z,2.60
2018-03-04T03:58:40.618Z,2.54
2018-03-04T03:59:29.780Z,2.51
2018-03-04T04:00:18.822Z,2.39
2018-03-04T04:01:07.856Z,2.42
2018-03-04T04:01:56.886Z,2.51
2018-03-04T04:02:45.926Z,2.49
2018-03-04T04:03:34.974Z,2.51
2018-03-04T04:04:24.017Z,2.46
2018-03-04T04:05:13.178Z,2.47
2018-03-04T04:06:02.218Z,2.51
2018-03-04T04:06:51.259Z,2.48
2018-03-04T04:07:40.293Z,2.51
2018-03-04T04:08:29.332Z,2.58
2018-03-04T04:09:18.413Z,2.51
2018-03-04T04:10:07.450Z,2.43
2018-03-04T04:10:56.491Z,2.40
2018-03-04T04:11:45.535Z,2.39
2018-03-04T04:12:34.574Z,2.38
2018-03-04T04:13:23.615Z,2.41
2018-03-04T04:14:12.666Z,2.47
2018-03-04T04:15:01.832Z,2.42
2018-03-04T04:15:50.900Z,2.41
2018-03-04T04:16:39.959Z,2.42
2018-03-04T04:17:28.997Z,2.49
2018-03-04T04:18:18.702Z,2.51
2018-03-04T04:19:07.762Z,2.45
2018-03-04T04:19:56.805Z,2.49
2018-03-04T04:20:45.900Z,2.49
2018-03-04T04:21:34.959Z,2.49
2018-03-04T04:22:24.016Z,2.47
2018-03-04T04:23:13.063Z,2.49
2018-03-04T04:24:02.108Z,2.47
2018-03-04T04:24:51.151Z,2.52
2018-03-04T04:25:40.195Z,2.50
2018-03-04T04:26:29.403Z,2.43
2018-03-04T04:27:18.442Z,2.33
2018-03-04T04:28:07.503Z,2.31
2018-03-04T04:28:56.541Z,2.30
2018-03-04T04:29:45.578Z,2.34
2018-03-04T04:30:34.757Z,2.37
2018-03-04T04:31:23.789Z,2.38
2018-03-04T04:32:12.824Z,2.37
2018-03-04T04:33:01.874Z,2.45
2018-03-04T04:33:50.933Z,2.45
2018-03-04T04:34:39.976Z,2.48
2018-03-04T04:35:29.022Z,2.43
2018-03-04T04:36:18.121Z,2.52
2018-03-04T04:37:07.155Z,2.48
2018-03-04T04:37:56.216Z,2.42
2018-03-04T04:38:45.249Z,2.45
2018-03-04T04:39:34.298Z,2.47
2018-03-04T04:40:23.335Z,2.52
2018-03-04T04:41:12.375Z,2.56
2018-03-04T04:42:01.542Z,2.60
2018-03-04T04:42:50.587Z,2.52
2018-03-04T04:43:39.624Z,2.56
2018-03-04T04:44:30.272Z,2.60
2018-03-04T04:45:19.310Z,2.51
2018-03-04T04:46:08.359Z,2.47
2018-03-04T04:46:57.499Z,2.50
2018-03-04T04:47:46.561Z,2.51
2018-03-04T04:48:35.607Z,2.56
2018-03-04T04:49:24.653Z,2.60
2018-03-04T04:50:13.745Z,2.52
2018-03-04T04:51:02.818Z,2.56
2018-03-04T04:51:51.878Z,2.54
2018-03-04T04:52:40.942Z,2.56
2018-03-04T04:53:30.004Z,2.54
2018-03-04T04:54:19.035Z,2.58
2018-03-04T04:55:08.141Z,2.55
2018-03-04T04:55:57.200Z,2.51
2018-03-04T04:56:46.249Z,2.44
2018-03-04T04:57:35.294Z,2.49
2018-03-04T04:58:24.338Z,2.50
2018-03-04T04:59:13.374Z,2.53
2018-03-04T05:00:02.530Z,2.49
2018-03-04T05:00:51.582Z,2.45
2018-03-04T05:01:40.979Z,2.39
2018-03-04T05:02:30.018Z,2.44
2018-03-04T05:03:19.063Z,2.48
2018-03-04T05:04:08.098Z,2.50
2018-03-04T05:04:57.148Z,2.46
2018-03-04T05:05:46.221Z,2.47
2018-03-04T05:06:35.248Z,2.55
2018-03-04T05:07:24.287Z,2.52
2018-03-04T05:08:13.332Z,2.49
2018-03-04T05:09:02.370Z,2.55
2018-03-04T05:09:51.417Z,2.55
2018-03-04T05:10:40.461Z,2.57
2018-03-04T05:11:29.626Z,2.57
2018-03-04T05:12:18.670Z,2.69
2018-03-04T05:13:07.715Z,2.68
2018-03-04T05:13:56.766Z,2.67
2018-03-04T05:14:45.808Z,2.65
2018-03-04T05:15:34.849Z,2.70
2018-03-04T05:16:23.880Z,2.69
2018-03-04T05:17:12.965Z,2.68
2018-03-04T05:18:01.995Z,2.65
2018-03-04T05:18:51.027Z,2.69
2018-03-04T05:19:40.052Z,2.67
2018-03-04T05:20:29.093Z,2.66
2018-03-04T05:21:18.174Z,2.69
2018-03-04T05:22:07.360Z,2.66
2018-03-04T05:22:56.394Z,2.66
2018-03-04T05:23:45.441Z,2.69
2018-03-04T05:24:34.498Z,2.70
2018-03-04T05:25:23.521Z,2.71
2018-03-04T05:26:12.554Z,2.74
2018-03-04T05:27:01.590Z,2.77
2018-03-04T05:27:50.672Z,2.82
2018-03-04T05:28:39.717Z,2.85
2018-03-04T05:29:28.760Z,2.89
2018-03-04T05:30:17.798Z,2.86
2018-03-04T05:31:06.886Z,2.91
2018-03-04T05:31:55.930Z,2.92
2018-03-04T05:32:44.994Z,2.85
2018-03-04T05:33:34.095Z,2.83
2018-03-04T05:34:23.159Z,2.88
2018-03-04T05:35:12.209Z,2.92
2018-03-04T05:36:01.251Z,2.91
2018-03-04T05:36:50.277Z,2.93
2018-03-04T05:37:39.332Z,2.98
2018-03-04T05:38:28.402Z,2.90
2018-03-04T05:39:17.624Z,2.84
2018-03-04T05:40:06.679Z,2.87
2018-03-04T05:40:55.721Z,2.91
2018-03-04T05:41:44.756Z,2.85
2018-03-04T05:42:33.809Z,2.86
2018-03-04T05:43:22.934Z,2.92
2018-03-04T05:44:11.981Z,2.85
2018-03-04T05:45:01.013Z,2.82
2018-03-04T05:45:50.114Z,2.82
2018-03-04T05:46:39.147Z,2.74
2018-03-04T05:47:28.190Z,2.92
2018-03-04T05:48:17.228Z,3.01
2018-03-04T05:49:06.301Z,3.08
2018-03-04T05:49:55.360Z,3.10
2018-03-04T05:50:44.406Z,3.10
2018-03-04T05:51:33.456Z,3.09
2018-03-04T05:52:22.522Z,3.03
2018-03-04T05:53:11.611Z,2.94
2018-03-04T05:54:00.657Z,2.97
2018-03-04T05:54:49.754Z,2.93
2018-03-04T05:55:38.823Z,2.96
2018-03-04T05:56:27.898Z,2.98
2018-03-04T05:57:16.964Z,3.11
2018-03-04T05:58:06.022Z,3.14
2018-03-04T05:58:55.076Z,3.20
2018-03-04T05:59:44.172Z,2.91
2018-03-04T06:00:33.385Z,2.84
2018-03-04T06:01:22.481Z,2.76
2018-03-04T06:02:11.527Z,2.80
2018-03-04T06:03:00.588Z,2.80
2018-03-04T06:03:49.636Z,2.83
2018-03-04T06:04:38.690Z,2.87
2018-03-04T06:05:27.818Z,2.92
2018-03-04T06:06:17.086Z,2.97
2018-03-04T06:07:06.130Z,3.00
2018-03-04T06:07:55.280Z,3.03
2018-03-04T06:08:44.373Z,3.15
2018-03-04T06:09:33.416Z,3.11
2018-03-04T06:10:22.462Z,3.15
2018-03-04T06:11:11.519Z,3.19
2018-03-04T06:12:00.631Z,3.16
2018-03-04T06:12:49.680Z,3.13
2018-03-04T06:13:38.727Z,3.17
2018-03-04T06:14:27.911Z,3.13
2018-03-04T06:15:16.997Z,3.01
2018-03-04T06:16:06.054Z,2.98
2018-03-04T06:16:55.125Z,3.08
2018-03-04T06:17:44.220Z,3.15
2018-03-04T06:18:33.303Z,3.20
2018-03-04T06:19:22.382Z,3.26
2018-03-04T06:20:11.436Z,3.30
2018-03-04T06:21:00.517Z,3.29
2018-03-04T06:21:49.564Z,3.31
2018-03-04T06:22:38.624Z,3.35
2018-03-04T06:23:27.798Z,3.36
2018-03-04T06:24:16.853Z,3.40
2018-03-04T06:25:05.915Z,3.48
2018-03-04T06:25:55.113Z,3.62
2018-03-04T06:26:44.155Z,3.73
2018-03-04T06:27:33.218Z,3.80
2018-03-04T06:28:22.260Z,3.94
2018-03-04T06:29:11.324Z,4.03
2018-03-04T06:30:00.383Z,4.21
2018-03-04T06:30:49.432Z,4.30
2018-03-04T06:31:38.546Z,4.31
2018-03-04T06:32:27.626Z,4.26
2018-03-04T06:33:16.676Z,4.25
2018-03-04T06:34:05.737Z,4.44
2018-03-04T06:34:54.801Z,4.60
2018-03-04T06:35:43.865Z,4.73
2018-03-04T06:36:32.925Z,4.84
2018-03-04T06:37:22.013Z,4.90
2018-03-04T06:38:11.122Z,4.90
2018-03-04T06:39:00.157Z,4.79
2018-03-04T06:39:49.203Z,4.82
2018-03-04T06:40:38.245Z,4.75
2018-03-04T06:41:27.312Z,4.66
2018-03-04T06:42:16.431Z,4.66
2018-03-04T06:43:05.622Z,4.86
2018-03-04T06:43:54.660Z,4.83
2018-03-04T06:44:43.718Z,4.93
2018-03-04T06:45:32.774Z,5.05
2018-03-04T06:46:21.833Z,5.13
2018-03-04T06:47:10.878Z,5.27
2018-03-04T06:47:59.943Z,5.36
2018-03-04T06:48:49.046Z,5.36
2018-03-04T06:49:38.109Z,5.48
2018-03-04T06:50:27.207Z,5.58
2018-03-04T06:51:16.350Z,5.68
2018-03-04T06:52:05.452Z,5.72
2018-03-04T06:52:54.533Z,5.62
2018-03-04T06:53:43.603Z,5.70
2018-03-04T06:54:32.804Z,5.77
2018-03-04T06:55:21.926Z,5.86
2018-03-04T06:56:10.986Z,5.79
2018-03-04T06:57:00.021Z,5.74
2018-03-04T06:57:49.221Z,5.72
2018-03-04T06:58:38.263Z,5.89
2018-03-04T06:59:27.341Z,5.97
2018-03-04T07:00:17.330Z,5.98
2018-03-04T07:01:06.383Z,5.91
2018-03-04T07:01:55.429Z,5.98
2018-03-04T07:02:44.469Z,5.88
2018-03-04T07:03:33.550Z,5.92
2018-03-04T07:04:22.622Z,5.98
2018-03-04T07:05:11.956Z,5.95
2018-03-04T07:06:01.102Z,6.05
2018-03-04T07:06:50.196Z,6.08
2018-03-04T07:07:39.236Z,6.15
2018-03-04T07:08:28.287Z,6.25
2018-03-04T07:09:17.331Z,6.24
2018-03-04T07:10:06.380Z,6.35
2018-03-04T07:10:55.415Z,6.31
2018-03-04T07:11:44.523Z,6.24
2018-03-04T07:12:34.077Z,6.23
2018-03-04T07:13:23.193Z,6.12
2018-03-04T07:14:12.588Z,6.05
2018-03-04T07:15:01.649Z,6.09
2018-03-04T07:15:50.702Z,5.97
2018-03-04T07:16:39.977Z,5.83
2018-03-04T07:17:29.168Z,5.88
2018-03-04T07:18:18.235Z,6.06
2018-03-04T07:19:07.303Z,6.27
2018-03-04T07:19:56.359Z,6.41
2018-03-04T07:20:45.411Z,6.39
2018-03-04T07:21:34.470Z,6.39
2018-03-04T07:22:23.504Z,6.55
2018-03-04T07:23:12.597Z,6.57
2018-03-04T07:24:01.697Z,6.57
2018-03-04T07:24:50.769Z,6.63
2018-03-04T07:25:39.794Z,6.73
2018-03-04T07:26:28.859Z,6.81
2018-03-04T07:27:18.015Z,6.70
2018-03-04T07:28:07.054Z,6.65
2018-03-04T07:28:56.146Z,6.70
2018-03-04T07:29:45.224Z,6.81
2018-03-04T07:30:34.264Z,6.88
2018-03-04T07:31:23.305Z,6.99
2018-03-04T07:32:12.365Z,6.99
2018-03-04T07:33:01.723Z,6.90
2018-03-04T07:33:50.771Z,6.96
2018-03-04T07:34:39.906Z,7.11
2018-03-04T07:35:28.950Z,7.06
2018-03-04T07:36:17.978Z,7.11
2018-03-04T07:37:07.018Z,7.15
2018-03-04T07:37:56.066Z,7.26
2018-03-04T07:38:45.091Z,7.27
2018-03-04T07:39:34.194Z,7.19
2018-03-04T07:40:23.306Z,7.13
2018-03-04T07:41:12.460Z,7.07
2018-03-04T07:42:01.507Z,7.06
2018-03-04T07:42:50.560Z,7.18
2018-03-04T07:43:39.607Z,7.24
2018-03-04T07:44:28.779Z,7.34
2018-03-04T07:45:17.890Z,7.35
2018-03-04T07:46:06.952Z,7.39
2018-03-04T07:46:55.991Z,7.29
2018-03-04T07:47:45.040Z,7.31
2018-03-04T07:48:34.106Z,7.24
2018-03-04T07:49:23.144Z,7.31
2018-03-04T07:50:12.185Z,7.37
2018-03-04T07:51:01.388Z,7.40
2018-03-04T07:51:50.439Z,7.45
2018-03-04T07:52:39.513Z,7.45
2018-03-04T07:53:29.295Z,7.41
2018-03-04T07:54:18.354Z,7.45
2018-03-04T07:55:07.376Z,7.51
2018-03-04T07:55:56.454Z,7.47
2018-03-04T07:56:45.562Z,7.51
2018-03-04T07:57:34.609Z,7.64
2018-03-04T07:58:23.670Z,7.74
2018-03-04T07:59:12.709Z,7.85
2018-03-04T08:00:05.133Z,8.04
2018-03-04T08:00:54.171Z,8.14
2018-03-04T08:01:43.359Z,8.29
2018-03-04T08:02:32.401Z,8.37
2018-03-04T08:03:21.447Z,8.22
2018-03-04T08:04:10.483Z,8.28
2018-03-04T08:04:59.533Z,8.46
2018-03-04T08:05:48.576Z,8.67
2018-03-04T08:06:37.617Z,8.85
2018-03-04T08:07:26.697Z,8.91
2018-03-04T08:08:15.733Z,9.09
2018-03-04T08:09:04.823Z,9.30
2018-03-04T08:09:53.866Z,9.46
2018-03-04T08:10:42.919Z,9.56
2018-03-04T08:11:31.982Z,9.62
2018-03-04T08:12:21.027Z,9.60
2018-03-04T08:13:10.211Z,9.43
2018-03-04T08:13:59.252Z,9.16
2018-03-04T08:14:48.318Z,9.14
2018-03-04T08:15:37.363Z,9.00
2018-03-04T08:16:26.432Z,8.71
2018-03-04T08:17:15.463Z,8.61
2018-03-04T08:18:04.497Z,8.35
2018-03-04T08:18:54.513Z,8.19
2018-03-04T08:19:43.579Z,8.16
2018-03-04T08:20:32.618Z,8.06
2018-03-04T08:21:21.682Z,7.91
2018-03-04T08:22:10.711Z,7.81
2018-03-04T08:22:59.764Z,7.75
2018-03-04T08:23:48.822Z,7.65
2018-03-04T08:24:38.000Z,7.66
2018-03-04T08:25:36.224Z,7.71
2018-03-04T08:26:37.023Z,7.58
2018-03-04T08:27:37.630Z,7.31
2018-03-04T08:28:33.547Z,7.25
2018-03-04T08:29:22.585Z,7.01
2018-03-04T08:30:11.628Z,6.67
2018-03-04T08:31:01.896Z,6.71
2018-03-04T08:31:50.995Z,6.76
2018-03-04T08:32:40.031Z,6.72
2018-03-04T08:33:29.083Z,6.88
2018-03-04T08:34:18.226Z,6.96
2018-03-04T08:35:07.298Z,7.00
2018-03-04T08:35:56.343Z,6.96
2018-03-04T08:36:45.388Z,7.01
2018-03-04T08:37:34.473Z,7.01
2018-03-04T08:38:23.528Z,7.06
2018-03-04T08:39:12.674Z,7.10
2018-03-04T08:40:01.702Z,6.96
2018-03-04T08:40:50.760Z,7.07
2018-03-04T08:41:39.787Z,7.18
2018-03-04T08:42:28.819Z,7.22
2018-03-04T08:43:17.875Z,7.26
2018-03-04T08:44:06.973Z,7.34
2018-03-04T08:44:56.060Z,7.33
2018-03-04T08:45:45.107Z,7.34
2018-03-04T08:46:34.147Z,7.37
2018-03-04T08:47:23.184Z,7.28
2018-03-04T08:48:12.265Z,7.29
2018-03-04T08:49:01.387Z,7.29
2018-03-04T08:49:50.448Z,7.25
2018-03-04T08:50:39.528Z,7.38
2018-03-04T08:51:28.709Z,7.31
2018-03-04T08:52:17.752Z,7.29
2018-03-04T08:53:06.794Z,7.28
2018-03-04T08:53:55.855Z,7.34
2018-03-04T08:54:45.018Z,7.41
2018-03-04T08:55:34.176Z,7.46
2018-03-04T08:56:23.384Z,7.44
2018-03-04T08:57:12.569Z,7.24
2018-03-04T08:58:01.671Z,7.33
2018-03-04T08:58:50.841Z,7.40
2018-03-04T08:59:39.881Z,7.40
2018-03-04T09:00:28.954Z,7.50
2018-03-04T09:01:18.023Z,7.58
2018-03-04T09:02:07.670Z,7.61
2018-03-04T09:02:56.847Z,7.50
2018-03-04T09:03:45.925Z,7.34
2018-03-04T09:04:34.982Z,7.28
2018-03-04T09:05:24.086Z,7.30
2018-03-04T09:06:13.160Z,7.29
2018-03-04T09:07:02.209Z,7.27
2018-03-04T09:07:51.300Z,7.21
2018-03-04T09:08:40.389Z,7.17
2018-03-04T09:09:29.450Z,7.09
2018-03-04T09:10:18.523Z,7.02
2018-03-04T09:11:07.646Z,7.11
2018-03-04T09:11:56.692Z,7.21
2018-03-04T09:12:45.754Z,7.25
2018-03-04T09:13:34.807Z,7.27
2018-03-04T09:14:23.894Z,7.31
2018-03-04T09:15:12.945Z,7.38
2018-03-04T09:16:02.046Z,7.49
2018-03-04T09:16:51.247Z,7.57
2018-03-04T09:17:40.346Z,7.51
2018-03-04T09:18:29.401Z,7.76
2018-03-04T09:19:18.460Z,7.89
2018-03-04T09:20:07.522Z,7.90
2018-03-04T09:20:56.746Z,8.11
2018-03-04T09:21:45.845Z,8.26
2018-03-04T09:22:34.899Z,8.27
2018-03-04T09:23:23.968Z,8.31
2018-03-04T09:24:13.019Z,8.23
2018-03-04T09:25:02.087Z,8.33
2018-03-04T09:25:51.191Z,8.39
2018-03-04T09:26:40.396Z,8.21
2018-03-04T09:27:29.430Z,8.09
2018-03-04T09:28:18.461Z,7.82
2018-03-04T09:29:07.499Z,7.84
2018-03-04T09:29:56.538Z,7.79
2018-03-04T09:30:45.597Z,7.95
2018-03-04T09:31:34.630Z,7.82
2018-03-04T09:32:23.778Z,7.77
2018-03-04T09:33:12.901Z,7.72
2018-03-04T09:34:01.950Z,7.84
2018-03-04T09:34:51.156Z,7.84
2018-03-04T09:35:40.191Z,7.86
2018-03-04T09:36:29.242Z,7.91
2018-03-04T09:37:18.278Z,7.92
2018-03-04T09:38:07.358Z,7.90
2018-03-04T09:38:56.394Z,7.76
2018-03-04T09:39:45.536Z,7.70
2018-03-04T09:40:34.658Z,7.74
2018-03-04T09:41:23.710Z,7.68
2018-03-04T09:42:12.748Z,7.83
2018-03-04T09:43:01.795Z,7.74
2018-03-04T09:43:50.829Z,7.68
2018-03-04T09:44:39.873Z,7.59
2018-03-04T09:45:28.921Z,7.46
2018-03-04T09:46:21.068Z,7.48
2018-03-04T09:47:10.102Z,7.53
2018-03-04T09:47:59.140Z,7.51
2018-03-04T09:48:48.180Z,7.52
2018-03-04T09:49:37.293Z,7.57
2018-03-04T09:50:26.327Z,7.59
2018-03-04T09:51:15.392Z,7.66
2018-03-04T09:52:04.486Z,7.72
2018-03-04T09:52:53.529Z,7.56
2018-03-04T09:53:42.620Z,7.57
2018-03-04T09:54:31.664Z,7.56
2018-03-04T09:55:20.712Z,7.56
2018-03-04T09:56:09.750Z,7.55
2018-03-04T09:56:58.964Z,7.65
2018-03-04T09:57:48.122Z,7.66
2018-03-04T09:58:37.145Z,7.64
2018-03-04T09:59:26.225Z,7.63
2018-03-04T10:00:15.255Z,7.61
2018-03-04T10:01:04.344Z,7.55
2018-03-04T10:01:53.384Z,7.53
2018-03-04T10:02:42.424Z,7.45
2018-03-04T10:03:31.493Z,7.48
2018-03-04T10:04:20.538Z,7.59
2018-03-04T10:05:09.589Z,7.57
2018-03-04T10:05:58.682Z,7.63
2018-03-04T10:06:47.726Z,7.67
2018-03-04T10:07:36.762Z,7.63
2018-03-04T10:08:25.810Z,7.57
2018-03-04T10:09:14.892Z,7.63
2018-03-04T10:10:03.947Z,7.70
2018-03-04T10:10:53.003Z,7.63
2018-03-04T10:11:42.076Z,7.74
2018-03-04T10:12:31.111Z,7.74
2018-03-04T10:13:20.161Z,7.88
2018-03-04T10:14:09.239Z,7.94
2018-03-04T10:14:58.384Z,8.19
2018-03-04T10:15:47.419Z,8.34
2018-03-04T10:16:36.459Z,8.63
2018-03-04T10:17:26.542Z,9.03
2018-03-04T10:18:15.603Z,8.87
2018-03-04T10:19:04.646Z,8.91
2018-03-04T10:19:53.706Z,9.26
2018-03-04T10:20:42.912Z,9.36
2018-03-04T10:21:31.964Z,9.57
2018-03-04T10:22:21.005Z,9.88
2018-03-04T10:23:10.100Z,10.11
2018-03-04T10:23:59.155Z,10.19
2018-03-04T10:24:48.210Z,10.21
2018-03-04T10:25:39.735Z,10.05
2018-03-04T10:26:28.836Z,10.15
2018-03-04T10:27:17.884Z,9.95
2018-03-04T10:28:06.930Z,9.77
2018-03-04T10:28:55.970Z,9.47
2018-03-04T10:29:45.066Z,9.57
2018-03-04T10:30:34.108Z,9.66
2018-03-04T10:31:23.144Z,9.52
2018-03-04T10:32:12.174Z,9.64
2018-03-04T10:33:01.226Z,9.72
2018-03-04T10:33:50.277Z,9.69
2018-03-04T10:34:39.346Z,9.79
2018-03-04T10:35:28.478Z,9.78
2018-03-04T10:36:17.516Z,10.05
2018-03-04T10:37:06.571Z,9.91
2018-03-04T10:37:55.620Z,9.68
2018-03-04T10:38:45.091Z,9.56
2018-03-04T10:39:34.134Z,9.81
2018-03-04T10:40:23.255Z,9.86
2018-03-04T10:41:12.282Z,9.58
2018-03-04T10:42:01.343Z,9.58
2018-03-04T10:42:50.407Z,9.50
2018-03-04T10:43:39.437Z,9.54
2018-03-04T10:44:28.655Z,9.40
2018-03-04T10:45:17.694Z,9.73
2018-03-04T10:46:06.736Z,9.73
2018-03-04T10:46:55.786Z,9.78
2018-03-04T10:47:44.846Z,9.86
2018-03-04T10:48:33.873Z,10.32
2018-03-04T10:49:22.935Z,10.14
2018-03-04T10:50:12.015Z,10.35
2018-03-04T10:51:01.112Z,10.29
2018-03-04T10:51:50.218Z,10.04
2018-03-04T10:52:39.299Z,10.01
2018-03-04T10:53:28.335Z,10.06
2018-03-04T10:54:17.401Z,10.37